sensor_id;sensor_type;location;lat;lon;timestamp;pressure;altitude;pressure_sealevel;temperature;humidity
21664;BME280;10993;52.510;13.456;2023-03-25T00:04:01;56562.81;;;-146.93;73.48
21664;BME280;10993;52.510;13.456;2023-03-25T00:09:03;56587.13;;;-146.93;73.19
21664;BME280;10993;52.510;13.456;2023-03-25T00:14:05;56574.97;;;-146.93;74.26
21664;BME280;10993;52.510;13.456;2023-03-25T00:19:05;56581.03;;;-146.93;74.18
21664;BME280;10993;52.510;13.456;2023-03-25T00:24:08;56577.00;;;-146.93;74.71
21664;BME280;10993;52.510;13.456;2023-03-25T00:29:10;56572.94;;;-146.93;75.14
21664;BME280;10993;52.510;13.456;2023-03-25T00:34:10;56581.03;;;-146.93;75.23
21664;BME280;10993;52.510;13.456;2023-03-25T00:39:13;56540.53;;;-146.93;75.34
21664;BME280;10993;52.510;13.456;2023-03-25T00:44:15;56560.78;;;-146.93;75.53
21664;BME280;10993;52.510;13.456;2023-03-25T00:49:16;56560.78;;;-146.93;75.20
21664;BME280;10993;52.510;13.456;2023-03-25T00:54:16;56601.28;;;-146.93;75.87
21664;BME280;10993;52.510;13.456;2023-03-25T00:59:18;56562.81;;;-146.93;75.16
21664;BME280;10993;52.510;13.456;2023-03-25T01:04:19;56591.16;;;-146.93;76.50
21664;BME280;10993;52.510;13.456;2023-03-25T01:09:21;56585.09;;;-146.93;77.08
21664;BME280;10993;52.510;13.456;2023-03-25T01:14:23;56631.66;;;-146.93;76.77
21664;BME280;10993;52.510;13.456;2023-03-25T01:19:26;56544.59;;;-146.93;76.48
21664;BME280;10993;52.510;13.456;2023-03-25T01:24:27;56540.53;;;-146.93;77.21
21664;BME280;10993;52.510;13.456;2023-03-25T01:29:29;56350.22;;;-146.93;77.07
21664;BME280;10993;52.510;13.456;2023-03-25T01:34:30;56508.16;;;-146.93;77.40
21664;BME280;10993;52.510;13.456;2023-03-25T01:39:31;56552.69;;;-146.93;77.37
21664;BME280;10993;52.510;13.456;2023-03-25T01:50:11;56425.13;;;-146.93;77.26
21664;BME280;10993;52.510;13.456;2023-03-25T01:55:14;56427.16;;;-146.93;77.52
21664;BME280;10993;52.510;13.456;2023-03-25T02:00:17;56538.53;;;-146.93;78.25
21664;BME280;10993;52.510;13.456;2023-03-25T02:05:23;56504.09;;;-146.93;77.59
21664;BME280;10993;52.510;13.456;2023-03-25T02:10:26;56564.84;;;-146.93;77.57
21664;BME280;10993;52.510;13.456;2023-03-25T02:15:28;56508.16;;;-146.93;78.05
21664;BME280;10993;52.510;13.456;2023-03-25T02:21:05;56579.00;;;-146.93;77.07
21664;BME280;10993;52.510;13.456;2023-03-25T02:26:24;56536.50;;;-146.93;77.31
21664;BME280;10993;52.510;13.456;2023-03-25T02:31:47;56427.16;;;-146.93;76.73
21664;BME280;10993;52.510;13.456;2023-03-25T02:37:10;56540.53;;;-146.93;76.63
21664;BME280;10993;52.510;13.456;2023-03-25T02:42:22;56585.09;;;-146.93;75.25
21664;BME280;10993;52.510;13.456;2023-03-25T02:47:28;56595.22;;;-146.93;75.28
21664;BME280;10993;52.510;13.456;2023-03-25T02:52:33;56581.03;;;-146.93;74.80
21664;BME280;10993;52.510;13.456;2023-03-25T02:57:40;56508.16;;;-146.93;74.83
21664;BME280;10993;52.510;13.456;2023-03-25T03:02:43;56538.53;;;-146.93;75.29
21664;BME280;10993;52.510;13.456;2023-03-25T03:07:45;56487.91;;;-146.93;75.27
21664;BME280;10993;52.510;13.456;2023-03-25T03:12:59;56550.66;;;-146.93;74.77
21664;BME280;10993;52.510;13.456;2023-03-25T03:18:10;56581.03;;;-146.93;75.34
21664;BME280;10993;52.510;13.456;2023-03-25T03:23:18;56548.66;;;-146.93;74.11
21664;BME280;10993;52.510;13.456;2023-03-25T03:28:29;56593.19;;;-146.93;75.25
21664;BME280;10993;52.510;13.456;2023-03-25T03:33:34;56601.28;;;-146.93;77.23
21664;BME280;10993;52.510;13.456;2023-03-25T03:38:43;56544.59;;;-146.93;79.60
21664;BME280;10993;52.510;13.456;2023-03-25T03:43:48;56627.59;;;-146.93;80.75
21664;BME280;10993;52.510;13.456;2023-03-25T03:48:53;56556.75;;;-146.93;82.14
21664;BME280;10993;52.510;13.456;2023-03-25T03:53:57;56583.06;;;-146.93;82.05
21664;BME280;10993;52.510;13.456;2023-03-25T03:59:02;56585.09;;;-146.93;82.67
21664;BME280;10993;52.510;13.456;2023-03-25T04:04:06;56607.34;;;-146.93;83.13
21664;BME280;10993;52.510;13.456;2023-03-25T04:09:13;56581.03;;;-146.93;83.84
21664;BME280;10993;52.510;13.456;2023-03-25T04:14:19;56574.97;;;-146.93;84.41
21664;BME280;10993;52.510;13.456;2023-03-25T04:19:20;56577.00;;;-146.93;84.64
21664;BME280;10993;52.510;13.456;2023-03-25T04:24:20;56585.09;;;-146.93;84.62
21664;BME280;10993;52.510;13.456;2023-03-25T04:29:22;56597.25;;;-146.93;84.59
21664;BME280;10993;52.510;13.456;2023-03-25T04:34:23;56581.03;;;-146.93;84.17
21664;BME280;10993;52.510;13.456;2023-03-25T04:39:26;56605.34;;;-146.93;84.21
21664;BME280;10993;52.510;13.456;2023-03-25T04:44:31;56579.00;;;-146.93;84.06
21664;BME280;10993;52.510;13.456;2023-03-25T04:49:38;56593.19;;;-146.93;83.87
21664;BME280;10993;52.510;13.456;2023-03-25T04:54:38;56581.03;;;-146.93;83.64
21664;BME280;10993;52.510;13.456;2023-03-25T04:59:40;56676.19;;;-146.93;83.18
21664;BME280;10993;52.510;13.456;2023-03-25T05:04:41;56564.84;;;-146.93;83.44
21664;BME280;10993;52.510;13.456;2023-03-25T05:09:42;56577.00;;;-146.93;83.66
21664;BME280;10993;52.510;13.456;2023-03-25T05:14:43;56593.19;;;-146.93;83.08
21664;BME280;10993;52.510;13.456;2023-03-25T05:19:44;56524.34;;;-146.93;83.13
21664;BME280;10993;52.510;13.456;2023-03-25T05:24:44;56591.16;;;-146.93;82.60
21664;BME280;10993;52.510;13.456;2023-03-25T05:29:46;56520.28;;;-146.93;82.42
21664;BME280;10993;52.510;13.456;2023-03-25T05:34:46;56639.75;;;-146.93;80.29
21664;BME280;10993;52.510;13.456;2023-03-25T05:39:47;56706.56;;;-146.93;74.82
21664;BME280;10993;52.510;13.456;2023-03-25T05:44:49;57261.41;;;-146.93;70.64
21664;BME280;10993;52.510;13.456;2023-03-25T05:49:52;56817.94;;;-146.93;66.48
21664;BME280;10993;52.510;13.456;2023-03-25T05:54:53;56945.50;;;-146.93;57.29
21664;BME280;10993;52.510;13.456;2023-03-25T05:59:56;56850.34;;;-146.93;58.54
21664;BME280;10993;52.510;13.456;2023-03-25T06:04:56;56716.69;;;-146.93;64.03
21664;BME280;10993;52.510;13.456;2023-03-25T06:09:57;56657.97;;;-146.93;68.28
21664;BME280;10993;52.510;13.456;2023-03-25T06:14:59;56645.81;;;-146.93;69.56
21664;BME280;10993;52.510;13.456;2023-03-25T06:19:59;56657.97;;;-146.93;69.22
21664;BME280;10993;52.510;13.456;2023-03-25T06:24:59;56449.44;;;-146.93;70.02
21664;BME280;10993;52.510;13.456;2023-03-25T06:30:02;56617.47;;;-146.93;70.81
21664;BME280;10993;52.510;13.456;2023-03-25T06:35:04;56657.97;;;-146.93;69.75
21664;BME280;10993;52.510;13.456;2023-03-25T06:40:05;56643.81;;;-146.93;68.31
21664;BME280;10993;52.510;13.456;2023-03-25T06:45:08;56666.06;;;-146.93;67.93
21664;BME280;10993;52.510;13.456;2023-03-25T06:50:09;56651.91;;;-146.93;65.80
21664;BME280;10993;52.510;13.456;2023-03-25T06:55:11;56678.22;;;-146.93;65.50
21664;BME280;10993;52.510;13.456;2023-03-25T07:00:13;56690.38;;;-146.93;64.83
21664;BME280;10993;52.510;13.456;2023-03-25T07:05:14;56668.09;;;-146.93;65.29
21664;BME280;10993;52.510;13.456;2023-03-25T07:10:14;56767.31;;;-146.93;63.62
21664;BME280;10993;52.510;13.456;2023-03-25T07:15:17;57121.69;;;-146.93;49.03
21664;BME280;10993;52.510;13.456;2023-03-25T07:20:17;57656.31;;;-146.93;37.96
21664;BME280;10993;52.510;13.456;2023-03-25T07:25:18;58063.44;;;-146.93;36.19
21664;BME280;10993;52.510;13.456;2023-03-25T07:30:19;58498.97;;;-146.93;32.95
21664;BME280;10993;52.510;13.456;2023-03-25T07:35:20;58608.38;;;-146.93;32.06
21664;BME280;10993;52.510;13.456;2023-03-25T07:40:20;58606.34;;;-146.93;30.91
21664;BME280;10993;52.510;13.456;2023-03-25T07:45:22;58383.50;;;-146.93;30.86
21664;BME280;10993;52.510;13.456;2023-03-25T07:50:22;58598.25;;;-146.93;29.87
21664;BME280;10993;52.510;13.456;2023-03-25T07:55:23;58063.44;;;-146.93;30.57
21664;BME280;10993;52.510;13.456;2023-03-25T08:00:25;57405.19;;;-146.93;33.87
21664;BME280;10993;52.510;13.456;2023-03-25T08:05:25;57423.41;;;-146.93;35.27
21664;BME280;10993;52.510;13.456;2023-03-25T08:10:27;57247.22;;;-146.93;36.57
21664;BME280;10993;52.510;13.456;2023-03-25T08:15:28;57123.69;;;-146.93;38.55
21664;BME280;10993;52.510;13.456;2023-03-25T08:20:29;57103.44;;;-146.93;39.73
21664;BME280;10993;52.510;13.456;2023-03-25T08:25:30;57150.03;;;-146.93;38.46
21664;BME280;10993;52.510;13.456;2023-03-25T08:30:32;57141.94;;;-146.93;37.63
21664;BME280;10993;52.510;13.456;2023-03-25T08:35:38;57476.06;;;-146.93;34.63
21664;BME280;10993;52.510;13.456;2023-03-25T08:40:38;57405.19;;;-146.93;35.58
21664;BME280;10993;52.510;13.456;2023-03-25T08:45:40;57224.97;;;-146.93;35.97
21664;BME280;10993;52.510;13.456;2023-03-25T08:50:40;57330.25;;;-146.93;36.95
21664;BME280;10993;52.510;13.456;2023-03-25T08:55:41;57184.44;;;-146.93;37.13
21664;BME280;10993;52.510;13.456;2023-03-25T09:00:42;57184.44;;;-146.93;37.08
21664;BME280;10993;52.510;13.456;2023-03-25T09:05:43;57180.41;;;-146.93;36.77
21664;BME280;10993;52.510;13.456;2023-03-25T09:10:43;56994.09;;;-146.93;38.55
21664;BME280;10993;52.510;13.456;2023-03-25T09:15:45;56900.97;;;-146.93;40.34
21664;BME280;10993;52.510;13.456;2023-03-25T09:20:46;56896.91;;;-146.93;39.81
21664;BME280;10993;52.510;13.456;2023-03-25T09:25:49;57148.00;;;-146.93;36.05
21664;BME280;10993;52.510;13.456;2023-03-25T09:30:51;57459.88;;;-146.93;33.46
21664;BME280;10993;52.510;13.456;2023-03-25T09:35:53;57336.34;;;-146.93;34.07
21664;BME280;10993;52.510;13.456;2023-03-25T09:40:54;57091.31;;;-146.93;36.06
21664;BME280;10993;52.510;13.456;2023-03-25T09:45:57;57010.31;;;-146.93;37.24
21664;BME280;10993;52.510;13.456;2023-03-25T09:51:02;57014.34;;;-146.93;37.70
21664;BME280;10993;52.510;13.456;2023-03-25T09:56:06;56986.00;;;-146.93;37.74
21664;BME280;10993;52.510;13.456;2023-03-25T10:01:19;57073.06;;;-146.93;37.17
21664;BME280;10993;52.510;13.456;2023-03-25T10:06:23;57378.88;;;-146.93;34.60
21664;BME280;10993;52.510;13.456;2023-03-25T10:11:30;57119.66;;;-146.93;35.38
21664;BME280;10993;52.510;13.456;2023-03-25T10:16:43;57026.50;;;-146.93;36.04
21664;BME280;10993;52.510;13.456;2023-03-25T10:21:52;56965.75;;;-146.93;36.53
21664;BME280;10993;52.510;13.456;2023-03-25T10:26:58;56933.34;;;-146.93;37.49
21664;BME280;10993;52.510;13.456;2023-03-25T10:32:05;57099.41;;;-146.93;35.66
21664;BME280;10993;52.510;13.456;2023-03-25T10:37:10;57243.19;;;-146.93;33.97
21664;BME280;10993;52.510;13.456;2023-03-25T10:42:18;57356.59;;;-146.93;32.44
21664;BME280;10993;52.510;13.456;2023-03-25T10:47:23;57131.81;;;-146.93;33.68
21664;BME280;10993;52.510;13.456;2023-03-25T10:52:26;57139.91;;;-146.93;34.18
21664;BME280;10993;52.510;13.456;2023-03-25T10:57:28;57717.09;;;-146.93;31.16
21664;BME280;10993;52.510;13.456;2023-03-25T11:02:32;57869.00;;;-146.93;29.48
21664;BME280;10993;52.510;13.456;2023-03-25T11:07:35;58450.34;;;-146.93;27.50
21664;BME280;10993;52.510;13.456;2023-03-25T11:12:36;58201.19;;;-146.93;27.46
21664;BME280;10993;52.510;13.456;2023-03-25T11:17:39;57711.00;;;-146.93;30.00
21664;BME280;10993;52.510;13.456;2023-03-25T11:22:45;57528.72;;;-146.93;30.60
21664;BME280;10993;52.510;13.456;2023-03-25T11:27:48;57587.47;;;-146.93;30.53
21664;BME280;10993;52.510;13.456;2023-03-25T11:33:01;57370.75;;;-146.93;32.35
21664;BME280;10993;52.510;13.456;2023-03-25T11:38:13;57103.44;;;-146.93;34.07
21664;BME280;10993;52.510;13.456;2023-03-25T11:43:19;57188.50;;;-146.93;33.23
21664;BME280;10993;52.510;13.456;2023-03-25T11:48:22;57771.78;;;-146.93;33.51
21664;BME280;10993;52.510;13.456;2023-03-25T11:53:25;57091.31;;;-146.93;36.20
21664;BME280;10993;52.510;13.456;2023-03-25T11:58:28;57431.53;;;-146.93;32.50
21664;BME280;10993;52.510;13.456;2023-03-25T12:03:36;57463.94;;;-146.93;31.15
21664;BME280;10993;52.510;13.456;2023-03-25T12:08:41;57366.72;;;-146.93;32.53
21664;BME280;10993;52.510;13.456;2023-03-25T12:19:33;57322.16;;;-146.93;33.07
21664;BME280;10993;52.510;13.456;2023-03-25T12:24:55;57295.84;;;-146.93;33.19
21664;BME280;10993;52.510;13.456;2023-03-25T12:30:06;57239.13;;;-146.93;34.17
21664;BME280;10993;52.510;13.456;2023-03-25T12:35:25;58075.59;;;-146.93;33.48
21664;BME280;10993;52.510;13.456;2023-03-25T12:40:40;57186.47;;;-146.93;32.67
21664;BME280;10993;52.510;13.456;2023-03-25T12:45:59;57220.91;;;-146.93;32.89
21664;BME280;10993;52.510;13.456;2023-03-25T12:51:13;57261.41;;;-146.93;33.35
21664;BME280;10993;52.510;13.456;2023-03-25T12:56:37;57362.66;;;-146.93;32.46
21664;BME280;10993;52.510;13.456;2023-03-25T13:01:47;57342.41;;;-146.93;31.70
21664;BME280;10993;52.510;13.456;2023-03-25T13:06:59;57356.59;;;-146.93;32.53
21664;BME280;10993;52.510;13.456;2023-03-25T13:12:04;57168.25;;;-146.93;34.60
21664;BME280;10993;52.510;13.456;2023-03-25T13:17:17;57016.38;;;-146.93;35.80
21664;BME280;10993;52.510;13.456;2023-03-25T13:22:23;56850.34;;;-146.93;37.69
21664;BME280;10993;52.510;13.456;2023-03-25T13:27:30;56840.22;;;-146.93;48.29
21664;BME280;10993;52.510;13.456;2023-03-25T13:32:36;56716.69;;;-146.93;58.52
21664;BME280;10993;52.510;13.456;2023-03-25T13:37:44;56726.81;;;-146.93;58.17
21664;BME280;10993;52.510;13.456;2023-03-25T13:42:48;56674.19;;;-146.93;60.91
21664;BME280;10993;52.510;13.456;2023-03-25T13:47:53;56664.06;;;-146.93;66.47
21664;BME280;10993;52.510;13.456;2023-03-25T13:53:02;56625.59;;;-146.93;66.46
21664;BME280;10993;52.510;13.456;2023-03-25T13:58:40;56605.34;;;-146.93;66.25
21664;BME280;10993;52.510;13.456;2023-03-25T14:04:01;56617.47;;;-146.93;68.10
21664;BME280;10993;52.510;13.456;2023-03-25T14:09:29;56621.53;;;-146.93;66.34
21664;BME280;10993;52.510;13.456;2023-03-25T14:14:36;56625.59;;;-146.93;65.19
21664;BME280;10993;52.510;13.456;2023-03-25T14:19:40;56674.19;;;-146.93;64.26
21664;BME280;10993;52.510;13.456;2023-03-25T14:24:45;56670.13;;;-146.93;63.83
21664;BME280;10993;52.510;13.456;2023-03-25T14:29:52;56714.66;;;-146.93;61.25
21664;BME280;10993;52.510;13.456;2023-03-25T14:40:48;56730.88;;;-146.93;54.91
21664;BME280;10993;52.510;13.456;2023-03-25T14:45:59;56775.41;;;-146.93;52.32
21664;BME280;10993;52.510;13.456;2023-03-25T14:51:16;56834.13;;;-146.93;49.01
21664;BME280;10993;52.510;13.456;2023-03-25T14:56:22;56783.50;;;-146.93;49.14
21664;BME280;10993;52.510;13.456;2023-03-25T15:01:29;56637.72;;;-146.93;49.50
21664;BME280;10993;52.510;13.456;2023-03-25T15:06:32;56706.56;;;-146.93;50.43
21664;BME280;10993;52.510;13.456;2023-03-25T15:11:36;56741.00;;;-146.93;51.36
21664;BME280;10993;52.510;13.456;2023-03-25T15:16:56;56706.56;;;-146.93;54.05
21664;BME280;10993;52.510;13.456;2023-03-25T15:22:18;56779.47;;;-146.93;53.33
21664;BME280;10993;52.510;13.456;2023-03-25T15:27:35;56747.06;;;-146.93;53.40
21664;BME280;10993;52.510;13.456;2023-03-25T15:32:48;56730.88;;;-146.93;52.16
21664;BME280;10993;52.510;13.456;2023-03-25T15:37:59;56787.56;;;-146.93;51.78
21664;BME280;10993;52.510;13.456;2023-03-25T15:43:19;56716.69;;;-146.93;52.79
21664;BME280;10993;52.510;13.456;2023-03-25T15:48:41;56757.19;;;-146.93;52.88
21664;BME280;10993;52.510;13.456;2023-03-25T15:53:56;56617.47;;;-146.93;51.69
21664;BME280;10993;52.510;13.456;2023-03-25T15:59:05;56720.75;;;-146.93;52.61
21664;BME280;10993;52.510;13.456;2023-03-25T16:04:10;56678.22;;;-146.93;52.81
21664;BME280;10993;52.510;13.456;2023-03-25T16:09:18;56694.41;;;-146.93;52.79
21664;BME280;10993;52.510;13.456;2023-03-25T16:14:21;56706.56;;;-146.93;52.45
21664;BME280;10993;52.510;13.456;2023-03-25T16:19:23;56581.03;;;-146.93;51.68
21664;BME280;10993;52.510;13.456;2023-03-25T16:24:28;56647.84;;;-146.93;58.01
21664;BME280;10993;52.510;13.456;2023-03-25T16:29:35;56682.28;;;-146.93;62.90
21664;BME280;10993;52.510;13.456;2023-03-25T16:34:39;56615.47;;;-146.93;67.37
21664;BME280;10993;52.510;13.456;2023-03-25T16:39:40;56538.53;;;-146.93;67.81
21664;BME280;10993;52.510;13.456;2023-03-25T16:44:42;56605.34;;;-146.93;66.29
21664;BME280;10993;52.510;13.456;2023-03-25T16:49:47;56603.31;;;-146.93;66.66
21664;BME280;10993;52.510;13.456;2023-03-25T16:55:11;56627.59;;;-146.93;67.08
21664;BME280;10993;52.510;13.456;2023-03-25T17:00:16;56627.59;;;-146.93;66.66
21664;BME280;10993;52.510;13.456;2023-03-25T17:05:20;56621.53;;;-146.93;67.78
21664;BME280;10993;52.510;13.456;2023-03-25T17:10:22;56508.16;;;-146.93;68.58
21664;BME280;10993;52.510;13.456;2023-03-25T17:15:25;56637.72;;;-146.93;67.91
21664;BME280;10993;52.510;13.456;2023-03-25T17:20:27;56619.50;;;-146.93;69.24
21664;BME280;10993;52.510;13.456;2023-03-25T17:25:33;56623.56;;;-146.93;69.27
21664;BME280;10993;52.510;13.456;2023-03-25T17:30:42;56589.13;;;-146.93;73.04
21664;BME280;10993;52.510;13.456;2023-03-25T17:35:50;56615.47;;;-146.93;74.34
21664;BME280;10993;52.510;13.456;2023-03-25T17:40:59;56572.94;;;-146.93;74.59
21664;BME280;10993;52.510;13.456;2023-03-25T17:46:02;56605.34;;;-146.93;75.40
21664;BME280;10993;52.510;13.456;2023-03-25T17:51:04;56623.56;;;-146.93;76.23
21664;BME280;10993;52.510;13.456;2023-03-25T17:56:05;56601.28;;;-146.93;76.40
21664;BME280;10993;52.510;13.456;2023-03-25T18:01:08;56593.19;;;-146.93;76.52
21664;BME280;10993;52.510;13.456;2023-03-25T18:06:10;56653.94;;;-146.93;76.33
21664;BME280;10993;52.510;13.456;2023-03-25T18:11:11;56583.06;;;-146.93;76.22
21664;BME280;10993;52.510;13.456;2023-03-25T18:16:14;56435.25;;;-146.93;76.29
21664;BME280;10993;52.510;13.456;2023-03-25T18:21:16;56522.31;;;-146.93;76.58
21664;BME280;10993;52.510;13.456;2023-03-25T18:26:17;56566.88;;;-146.93;76.65
21664;BME280;10993;52.510;13.456;2023-03-25T18:31:19;56589.13;;;-146.93;77.14
21664;BME280;10993;52.510;13.456;2023-03-25T18:36:22;56581.03;;;-146.93;75.75
21664;BME280;10993;52.510;13.456;2023-03-25T18:41:22;56581.03;;;-146.93;74.58
21664;BME280;10993;52.510;13.456;2023-03-25T18:46:24;56564.84;;;-146.93;73.78
21664;BME280;10993;52.510;13.456;2023-03-25T18:51:25;56577.00;;;-146.93;71.51
21664;BME280;10993;52.510;13.456;2023-03-25T18:56:25;56603.31;;;-146.93;70.63
21664;BME280;10993;52.510;13.456;2023-03-25T19:01:27;56615.47;;;-146.93;70.22
21664;BME280;10993;52.510;13.456;2023-03-25T19:06:28;56601.28;;;-146.93;69.67
21664;BME280;10993;52.510;13.456;2023-03-25T19:11:29;56591.16;;;-146.93;69.99
21664;BME280;10993;52.510;13.456;2023-03-25T19:16:34;56577.00;;;-146.93;69.42
21664;BME280;10993;52.510;13.456;2023-03-25T19:21:34;56605.34;;;-146.93;69.56
21664;BME280;10993;52.510;13.456;2023-03-25T19:26:35;56587.13;;;-146.93;69.40
21664;BME280;10993;52.510;13.456;2023-03-25T19:31:39;56589.13;;;-146.93;69.29
21664;BME280;10993;52.510;13.456;2023-03-25T19:36:44;56581.03;;;-146.93;67.69
21664;BME280;10993;52.510;13.456;2023-03-25T19:41:46;56603.31;;;-146.93;67.99
21664;BME280;10993;52.510;13.456;2023-03-25T19:46:49;56603.31;;;-146.93;66.36
21664;BME280;10993;52.510;13.456;2023-03-25T19:51:50;56544.59;;;-146.93;66.91
21664;BME280;10993;52.510;13.456;2023-03-25T19:56:50;56552.69;;;-146.93;66.30
21664;BME280;10993;52.510;13.456;2023-03-25T20:01:52;56554.72;;;-146.93;66.73
21664;BME280;10993;52.510;13.456;2023-03-25T20:06:52;56465.63;;;-146.93;67.58
21664;BME280;10993;52.510;13.456;2023-03-25T20:11:53;56550.66;;;-146.93;69.02
21664;BME280;10993;52.510;13.456;2023-03-25T20:16:55;56558.75;;;-146.93;69.66
21664;BME280;10993;52.510;13.456;2023-03-25T20:21:55;56554.72;;;-146.93;69.38
21664;BME280;10993;52.510;13.456;2023-03-25T20:26:55;56538.53;;;-146.93;70.02
21664;BME280;10993;52.510;13.456;2023-03-25T20:31:57;56540.53;;;-146.93;70.48
21664;BME280;10993;52.510;13.456;2023-03-25T20:36:57;56566.88;;;-146.93;71.05
21664;BME280;10993;52.510;13.456;2023-03-25T20:41:58;56552.69;;;-146.93;70.39
21664;BME280;10993;52.510;13.456;2023-03-25T20:47:01;57617.84;;;-146.93;70.02
21664;BME280;10993;52.510;13.456;2023-03-25T20:52:02;56524.34;;;-146.93;70.46
21664;BME280;10993;52.510;13.456;2023-03-25T20:57:03;56560.78;;;-146.93;71.30
21664;BME280;10993;52.510;13.456;2023-03-25T21:02:05;56564.84;;;-146.93;71.26
21664;BME280;10993;52.510;13.456;2023-03-25T21:07:05;56568.88;;;-146.93;71.65
21664;BME280;10993;52.510;13.456;2023-03-25T21:12:06;56613.44;;;-146.93;72.08
21664;BME280;10993;52.510;13.456;2023-03-25T21:17:07;56595.22;;;-146.93;74.22
21664;BME280;10993;52.510;13.456;2023-03-25T21:22:08;56556.75;;;-146.93;76.54
21664;BME280;10993;52.510;13.456;2023-03-25T21:27:09;56536.50;;;-146.93;79.27
21664;BME280;10993;52.510;13.456;2023-03-25T21:32:14;56520.28;;;-146.93;80.29
21664;BME280;10993;52.510;13.456;2023-03-25T21:37:14;56544.59;;;-146.93;81.30
21664;BME280;10993;52.510;13.456;2023-03-25T21:42:15;56518.28;;;-146.93;81.53
21664;BME280;10993;52.510;13.456;2023-03-25T21:47:16;56556.75;;;-146.93;81.79
21664;BME280;10993;52.510;13.456;2023-03-25T21:52:17;56524.34;;;-146.93;82.42
21664;BME280;10993;52.510;13.456;2023-03-25T21:57:17;56554.72;;;-146.93;81.23
21664;BME280;10993;52.510;13.456;2023-03-25T22:02:19;56645.81;;;-146.93;81.93
21664;BME280;10993;52.510;13.456;2023-03-25T22:07:20;56516.25;;;-146.93;82.07
21664;BME280;10993;52.510;13.456;2023-03-25T22:12:20;56767.31;;;-146.93;81.47
21664;BME280;10993;52.510;13.456;2023-03-25T22:17:22;56522.31;;;-146.93;80.97
21664;BME280;10993;52.510;13.456;2023-03-25T22:22:23;56481.84;;;-146.93;81.14
21664;BME280;10993;52.510;13.456;2023-03-25T22:27:23;56552.69;;;-146.93;81.21
21664;BME280;10993;52.510;13.456;2023-03-25T22:32:25;56550.66;;;-146.93;81.04
21664;BME280;10993;52.510;13.456;2023-03-25T22:37:26;56534.47;;;-146.93;80.69
21664;BME280;10993;52.510;13.456;2023-03-25T22:42:26;56526.38;;;-146.93;80.63
21664;BME280;10993;52.510;13.456;2023-03-25T22:47:30;56548.66;;;-146.93;79.97
21664;BME280;10993;52.510;13.456;2023-03-25T22:52:30;56487.91;;;-146.93;79.98
21664;BME280;10993;52.510;13.456;2023-03-25T22:57:30;56487.91;;;-146.93;78.92
21664;BME280;10993;52.510;13.456;2023-03-25T23:02:32;56554.72;;;-146.93;78.76
21664;BME280;10993;52.510;13.456;2023-03-25T23:07:33;56534.47;;;-146.93;77.96
21664;BME280;10993;52.510;13.456;2023-03-25T23:12:33;56536.50;;;-146.93;77.26
21664;BME280;10993;52.510;13.456;2023-03-25T23:17:35;56500.06;;;-146.93;77.19
21664;BME280;10993;52.510;13.456;2023-03-25T23:22:36;56564.84;;;-146.93;76.80
21664;BME280;10993;52.510;13.456;2023-03-25T23:27:36;56498.03;;;-146.93;76.04
21664;BME280;10993;52.510;13.456;2023-03-25T23:32:39;56540.53;;;-146.93;75.69
21664;BME280;10993;52.510;13.456;2023-03-25T23:37:40;56605.34;;;-146.93;74.79
21664;BME280;10993;52.510;13.456;2023-03-25T23:42:40;56562.81;;;-146.93;75.04
21664;BME280;10993;52.510;13.456;2023-03-25T23:47:42;56354.28;;;-146.93;75.00
21664;BME280;10993;52.510;13.456;2023-03-25T23:52:42;56564.84;;;-146.93;74.62
21664;BME280;10993;52.510;13.456;2023-03-25T23:57:43;56556.75;;;-146.93;74.78
